createdAt,value
2024-01-20T00:00:15.773Z,98.17
2024-01-20T00:02:43.587Z,98.26
2024-01-20T00:05:12.322Z,98.09
2024-01-20T00:07:39.892Z,98.30
2024-01-20T00:10:14.134Z,98.16
2024-01-20T00:12:42.885Z,98.10
2024-01-20T00:15:11.134Z,98.13
2024-01-20T00:17:39.595Z,98.29
2024-01-20T00:20:07.698Z,98.36
2024-01-20T00:22:34.625Z,98.30
2024-01-20T00:25:03.756Z,98.45
2024-01-20T00:27:31.919Z,98.51
2024-01-20T00:29:59.215Z,98.66
2024-01-20T00:32:25.975Z,98.64
2024-01-20T00:35:00.592Z,98.60
2024-01-20T00:37:38.422Z,98.74
2024-01-20T00:40:06.482Z,98.69
2024-01-20T00:42:33.320Z,98.67
2024-01-20T00:45:00.009Z,98.66
2024-01-20T00:47:26.644Z,98.72
2024-01-20T00:49:53.316Z,98.60
2024-01-20T00:52:20.001Z,98.64
2024-01-20T00:54:46.614Z,98.80
2024-01-20T00:57:13.251Z,98.92
2024-01-20T00:59:39.965Z,99.00
2024-01-20T01:02:06.580Z,98.99
2024-01-20T01:04:33.274Z,98.98
2024-01-20T01:06:59.893Z,98.97
2024-01-20T01:09:26.452Z,99.00
2024-01-20T01:11:53.037Z,99.06
2024-01-20T01:14:20.724Z,99.21
2024-01-20T01:16:47.761Z,99.27
2024-01-20T01:19:14.446Z,99.47
2024-01-20T01:21:41.046Z,99.50
2024-01-20T01:24:07.755Z,99.23
2024-01-20T01:26:34.541Z,99.17
2024-01-20T01:29:01.617Z,99.08
2024-01-20T01:31:28.248Z,99.13
2024-01-20T01:33:54.962Z,99.18
2024-01-20T01:36:21.745Z,99.12
2024-01-20T01:38:48.352Z,99.08
2024-01-20T01:41:15.083Z,99.00
2024-01-20T01:43:42.051Z,99.11
2024-01-20T01:46:09.523Z,99.08
2024-01-20T01:48:36.315Z,99.08
2024-01-20T01:51:06.635Z,99.16
2024-01-20T01:53:34.174Z,99.07
2024-01-20T01:56:02.131Z,99.03
2024-01-20T01:58:29.422Z,99.03
2024-01-20T05:04:18.514Z,99.99
2024-01-20T05:06:46.860Z,99.99
2024-01-20T05:09:14.850Z,99.99
2024-01-20T05:11:41.680Z,99.99
2024-01-20T05:14:12.109Z,99.99
2024-01-20T05:16:38.664Z,99.99
2024-01-20T05:19:05.468Z,99.99
2024-01-20T05:21:32.282Z,99.99
2024-01-20T05:23:58.936Z,99.99
2024-01-20T05:26:25.593Z,99.99
2024-01-20T05:28:52.182Z,99.99
2024-01-20T05:31:18.735Z,99.99
2024-01-20T05:33:45.594Z,99.99
2024-01-20T05:36:15.673Z,99.99
2024-01-20T05:38:42.533Z,99.99
2024-01-20T05:41:10.124Z,99.99
2024-01-20T05:43:37.680Z,99.99
2024-01-20T05:46:08.092Z,99.99
2024-01-20T05:48:36.364Z,99.99
2024-01-20T05:51:03.668Z,99.99
2024-01-20T05:53:30.575Z,99.99
2024-01-20T05:55:57.258Z,99.97
2024-01-20T05:58:23.833Z,99.87
2024-01-20T06:00:50.805Z,99.97
2024-01-20T06:03:17.522Z,99.99
2024-01-20T06:05:44.541Z,99.85
2024-01-20T06:08:11.864Z,99.85
2024-01-20T06:10:38.754Z,99.71
2024-01-20T06:13:05.370Z,99.73
2024-01-20T06:15:32.083Z,99.72
2024-01-20T06:17:58.796Z,99.65
2024-01-20T06:20:25.490Z,99.74
2024-01-20T06:22:52.085Z,99.63
2024-01-20T06:25:19.573Z,99.56
2024-01-20T06:27:46.160Z,99.30
2024-01-20T06:30:34.148Z,99.33
2024-01-20T06:33:01.330Z,99.27
2024-01-20T06:35:28.034Z,99.37
2024-01-20T06:37:54.619Z,99.22
2024-01-20T06:40:21.308Z,99.03
2024-01-20T06:42:48.017Z,99.17
2024-01-20T06:45:14.779Z,99.18
2024-01-20T06:47:41.576Z,99.18
2024-01-20T06:50:09.645Z,99.11
2024-01-20T06:52:36.289Z,99.41
2024-01-20T06:55:03.261Z,99.35
2024-01-20T06:57:31.041Z,99.36
2024-01-20T06:59:58.135Z,99.55
2024-01-20T07:02:24.813Z,99.51
2024-01-20T07:04:51.449Z,99.58
2024-01-20T07:07:18.423Z,99.49
2024-01-20T07:09:45.049Z,99.44
2024-01-20T07:12:11.857Z,99.42
2024-01-20T07:14:38.566Z,99.69
2024-01-20T07:17:06.483Z,99.69
2024-01-20T07:19:33.218Z,99.69
2024-01-20T07:21:59.893Z,99.97
2024-01-20T07:24:28.977Z,99.92
2024-01-20T07:26:56.098Z,99.80
2024-01-20T07:29:23.742Z,99.78
2024-01-20T07:31:51.463Z,99.81
2024-01-20T07:34:18.621Z,99.80
2024-01-20T07:36:45.444Z,99.99
2024-01-20T07:39:12.450Z,99.99
2024-01-20T07:41:39.118Z,99.99
2024-01-20T07:44:05.731Z,99.90
2024-01-20T07:46:32.325Z,99.99
2024-01-20T07:48:58.944Z,99.99
2024-01-20T07:51:25.655Z,99.99
2024-01-20T07:53:52.276Z,99.93
2024-01-20T07:56:18.924Z,99.66
2024-01-20T07:58:46.457Z,99.41
2024-01-20T08:01:13.070Z,99.28
2024-01-20T08:03:39.764Z,99.19
2024-01-20T08:06:06.584Z,99.08
2024-01-20T08:08:33.296Z,99.06
2024-01-20T08:10:59.833Z,98.64
2024-01-20T08:13:26.371Z,98.42
2024-01-20T08:15:52.967Z,98.47
2024-01-20T08:18:22.903Z,98.40
2024-01-20T08:20:49.558Z,98.47
2024-01-20T08:23:16.133Z,98.45
2024-01-20T08:25:42.782Z,98.24
2024-01-20T08:28:09.851Z,98.24
2024-01-20T08:30:36.595Z,97.97
2024-01-20T08:33:05.317Z,98.02
2024-01-20T08:35:32.845Z,98.12
2024-01-20T08:37:59.601Z,97.89
2024-01-20T08:40:26.346Z,97.93
2024-01-20T08:42:52.949Z,98.15
2024-01-20T08:45:19.772Z,98.21
2024-01-20T08:47:46.479Z,97.84
2024-01-20T08:50:13.220Z,97.73
2024-01-20T08:52:40.855Z,97.87
2024-01-20T08:55:08.296Z,98.01
2024-01-20T08:57:35.132Z,98.04
2024-01-20T09:00:02.194Z,97.86
2024-01-20T09:02:36.764Z,97.43
2024-01-20T09:05:03.969Z,97.42
2024-01-20T09:07:30.546Z,97.17
2024-01-20T09:09:59.145Z,97.13
2024-01-20T09:12:26.484Z,97.24
2024-01-20T09:14:53.268Z,96.83
2024-01-20T09:17:19.896Z,96.32
2024-01-20T09:19:47.517Z,95.25
2024-01-20T09:22:14.227Z,94.26
2024-01-20T09:24:40.830Z,93.96
2024-01-20T09:27:07.545Z,95.10
2024-01-20T09:29:34.291Z,94.50
2024-01-20T09:32:00.898Z,93.06
2024-01-20T09:34:29.448Z,92.84
2024-01-20T09:36:56.101Z,92.16
2024-01-20T09:39:23.052Z,92.81
2024-01-20T09:41:50.038Z,93.54
2024-01-20T09:44:17.768Z,93.77
2024-01-20T09:46:45.268Z,93.24
2024-01-20T09:49:12.077Z,92.79
2024-01-20T09:51:52.621Z,92.38
2024-01-20T09:54:21.701Z,92.36
2024-01-20T09:56:48.804Z,92.48
2024-01-20T09:59:16.398Z,91.34
2024-01-20T10:01:45.206Z,91.90
2024-01-20T10:04:18.005Z,93.00
2024-01-20T10:06:45.926Z,92.96
2024-01-20T10:09:12.687Z,92.22
2024-01-20T10:11:39.302Z,90.79
2024-01-20T10:14:06.210Z,90.63
2024-01-20T10:16:42.442Z,91.82
2024-01-20T10:19:09.451Z,91.99
2024-01-20T10:21:42.679Z,91.91
2024-01-20T10:24:09.967Z,91.54
2024-01-20T10:26:43.828Z,90.64
2024-01-20T10:29:13.549Z,89.91
2024-01-20T10:31:40.183Z,88.25
2024-01-20T10:34:07.095Z,88.66
2024-01-20T10:36:34.412Z,89.53
2024-01-20T10:39:06.297Z,89.57
2024-01-20T10:41:38.089Z,90.13
2024-01-20T10:44:08.771Z,89.96
2024-01-20T10:46:40.523Z,90.74
2024-01-20T10:49:15.580Z,90.20
2024-01-20T10:51:43.753Z,91.03
2024-01-20T10:54:11.554Z,90.54
2024-01-20T10:56:38.850Z,89.53
2024-01-20T10:59:18.091Z,87.40
2024-01-20T11:01:46.562Z,86.48
2024-01-20T11:04:20.895Z,86.92
2024-01-20T11:06:49.056Z,87.32
2024-01-20T11:09:23.195Z,87.25
2024-01-20T11:12:01.173Z,86.73
2024-01-20T11:14:32.108Z,85.15
2024-01-20T11:17:09.097Z,84.30
2024-01-20T11:19:35.739Z,83.88
2024-01-20T11:22:02.353Z,83.74
2024-01-20T11:24:43.607Z,83.96
2024-01-20T11:27:10.508Z,83.60
2024-01-20T11:29:37.146Z,83.47
2024-01-20T11:32:04.439Z,80.66
2024-01-20T11:34:31.153Z,77.00
2024-01-20T11:36:59.997Z,75.88
2024-01-20T11:39:26.667Z,74.69
2024-01-20T11:42:03.885Z,77.14
2024-01-20T11:44:33.982Z,78.32
2024-01-20T11:47:00.813Z,78.55
2024-01-20T11:49:28.013Z,78.55
2024-01-20T11:51:55.174Z,78.84
2024-01-20T11:54:22.041Z,77.76
2024-01-20T11:56:57.455Z,77.07
2024-01-20T11:59:24.084Z,76.44
2024-01-20T12:01:50.826Z,76.35
2024-01-20T12:04:17.733Z,76.64
2024-01-20T12:06:44.493Z,76.26
2024-01-20T12:09:12.610Z,75.30
2024-01-20T12:11:40.901Z,73.62
2024-01-20T12:14:09.325Z,73.44
2024-01-20T12:16:36.557Z,74.05
2024-01-20T12:19:03.351Z,71.26
2024-01-20T12:21:30.194Z,69.61
2024-01-20T12:23:57.476Z,69.90
2024-01-20T12:26:24.612Z,68.65
2024-01-20T12:28:54.324Z,68.78
2024-01-20T12:31:23.041Z,69.18
2024-01-20T12:33:50.731Z,68.81
2024-01-20T12:36:17.740Z,68.18
2024-01-20T12:38:44.530Z,67.18
2024-01-20T12:41:11.921Z,66.78
2024-01-20T12:43:38.711Z,64.77
2024-01-20T12:46:05.330Z,65.50
2024-01-20T12:48:32.094Z,65.71
2024-01-20T12:51:00.800Z,66.90
2024-01-20T12:53:28.028Z,68.87
2024-01-20T12:55:54.711Z,66.27
2024-01-20T12:58:21.353Z,64.92
2024-01-20T13:00:48.156Z,63.81
2024-01-20T13:03:14.845Z,61.75
2024-01-20T13:05:42.754Z,61.39
2024-01-20T13:08:09.403Z,61.63
2024-01-20T13:10:38.780Z,61.09
2024-01-20T13:13:05.359Z,60.28
2024-01-20T13:15:32.097Z,59.57
2024-01-20T13:17:58.877Z,60.92
2024-01-20T13:20:25.520Z,61.57
2024-01-20T13:22:52.182Z,62.17
2024-01-20T13:25:19.893Z,63.38
2024-01-20T13:27:46.746Z,64.23
2024-01-20T13:30:13.848Z,68.29
2024-01-20T13:32:40.890Z,70.35
2024-01-20T13:35:08.470Z,71.44
2024-01-20T13:37:35.251Z,73.22
2024-01-20T13:40:02.622Z,75.32
2024-01-20T13:42:29.239Z,75.88
2024-01-20T13:44:55.845Z,77.13
2024-01-20T13:47:22.455Z,77.34
2024-01-20T13:49:49.316Z,78.06
2024-01-20T13:52:16.067Z,78.08
2024-01-20T13:54:43.559Z,78.84
2024-01-20T13:57:11.182Z,78.68
2024-01-20T13:59:37.836Z,79.16
2024-01-20T14:02:04.676Z,78.27
2024-01-20T14:04:31.363Z,78.98
2024-01-20T14:07:03.265Z,79.01
2024-01-20T14:09:32.097Z,79.01
2024-01-20T14:11:58.789Z,78.51
2024-01-20T14:14:25.469Z,78.66
2024-01-20T14:16:59.496Z,78.22
2024-01-20T14:19:28.185Z,78.15
2024-01-20T14:21:55.026Z,78.66
2024-01-20T14:24:21.856Z,77.83
2024-01-20T14:26:49.033Z,77.81
2024-01-20T14:29:16.156Z,77.85
2024-01-20T14:31:50.361Z,78.08
2024-01-20T14:34:17.835Z,79.04
2024-01-20T14:36:46.963Z,79.04
2024-01-20T14:39:14.922Z,79.22
2024-01-20T14:41:41.633Z,79.02
2024-01-20T14:44:08.338Z,79.32
2024-01-20T14:46:34.948Z,78.99
2024-01-20T14:49:11.458Z,80.03
2024-01-20T14:51:38.370Z,79.83
2024-01-20T14:54:05.838Z,79.91
2024-01-20T14:56:36.847Z,79.42
2024-01-20T14:59:04.612Z,79.88
2024-01-20T15:01:32.402Z,79.62
2024-01-20T15:03:59.126Z,79.39
2024-01-20T15:06:27.786Z,79.09
2024-01-20T15:08:54.721Z,79.40
2024-01-20T15:11:21.352Z,79.60
2024-01-20T15:13:48.097Z,79.14
2024-01-20T15:16:14.836Z,79.79
2024-01-20T15:18:41.513Z,79.83
2024-01-20T15:21:08.539Z,79.95
2024-01-20T15:23:35.626Z,80.35
2024-01-20T15:26:02.265Z,79.86
2024-01-20T15:28:28.926Z,80.12
2024-01-20T15:30:55.547Z,80.04
2024-01-20T15:33:22.855Z,80.30
2024-01-20T15:35:49.635Z,80.63
2024-01-20T15:38:16.871Z,80.87
2024-01-20T15:40:44.247Z,81.07
2024-01-20T15:43:10.954Z,81.03
2024-01-20T15:45:38.575Z,81.31
2024-01-20T15:48:06.075Z,81.37
2024-01-20T15:50:32.833Z,81.67
2024-01-20T15:52:59.477Z,82.27
2024-01-20T15:55:26.025Z,82.85
2024-01-20T15:57:52.677Z,82.40
2024-01-20T16:00:19.310Z,82.91
2024-01-20T16:02:46.497Z,82.61
2024-01-20T16:05:13.395Z,82.60
2024-01-20T16:07:40.057Z,82.02
2024-01-20T16:10:07.165Z,82.44
2024-01-20T16:12:33.841Z,82.58
2024-01-20T16:15:00.760Z,82.70
2024-01-20T16:17:27.742Z,83.13
2024-01-20T16:19:54.567Z,83.31
2024-01-20T16:22:21.159Z,83.50
2024-01-20T16:24:47.846Z,82.97
2024-01-20T16:27:14.763Z,82.97
2024-01-20T16:29:41.365Z,83.18
2024-01-20T16:32:10.657Z,82.87
2024-01-20T16:34:38.121Z,82.92
2024-01-20T16:37:05.308Z,82.95
2024-01-20T16:39:32.029Z,83.37
2024-01-20T16:41:58.892Z,82.72
2024-01-20T16:44:27.079Z,82.59
2024-01-20T16:46:54.236Z,82.60
2024-01-20T16:49:22.196Z,82.56
2024-01-20T16:51:49.227Z,82.62
2024-01-20T16:54:16.086Z,82.60
2024-01-20T16:56:42.991Z,82.54
2024-01-20T16:59:10.564Z,82.40
2024-01-20T17:01:38.208Z,82.20
2024-01-20T17:04:05.660Z,82.23
2024-01-20T17:06:34.200Z,82.01
2024-01-20T17:09:02.001Z,81.70
2024-01-20T17:11:28.850Z,82.04
2024-01-20T17:13:55.695Z,82.35
2024-01-20T17:16:22.480Z,82.48
2024-01-20T17:18:49.282Z,82.56
2024-01-20T17:21:17.544Z,82.70
2024-01-20T17:23:44.895Z,83.17
2024-01-20T17:26:12.084Z,83.10
2024-01-20T17:28:38.904Z,83.01
2024-01-20T17:31:05.837Z,82.98
2024-01-20T17:33:32.836Z,83.05
2024-01-20T17:35:59.490Z,83.39
2024-01-20T17:38:26.219Z,83.17
2024-01-20T17:40:52.903Z,83.34
2024-01-20T17:43:19.491Z,83.12
2024-01-20T17:45:51.280Z,83.00
2024-01-20T17:48:18.161Z,82.78
2024-01-20T17:50:44.884Z,83.22
2024-01-20T17:53:13.307Z,83.00
2024-01-20T17:55:41.122Z,82.73
2024-01-20T17:58:10.162Z,82.84
2024-01-20T18:00:37.934Z,81.99
2024-01-20T18:03:05.832Z,82.63
2024-01-20T18:05:32.585Z,82.18
2024-01-20T18:07:59.312Z,81.96
2024-01-20T18:10:26.108Z,81.88
2024-01-20T18:12:52.761Z,82.04
2024-01-20T18:15:19.519Z,81.99
2024-01-20T18:17:46.725Z,81.94
2024-01-20T18:20:14.100Z,82.69
2024-01-20T18:22:40.875Z,82.30
2024-01-20T18:25:08.248Z,82.60
2024-01-20T18:27:35.041Z,82.71
2024-01-20T18:30:01.901Z,82.63
2024-01-20T18:32:29.071Z,82.76
2024-01-20T18:34:55.788Z,82.85
2024-01-20T18:37:22.287Z,83.27
2024-01-20T18:39:49.201Z,82.69
2024-01-20T18:42:19.057Z,82.53
2024-01-20T18:44:45.739Z,82.44
2024-01-20T18:47:12.608Z,82.49
2024-01-20T18:49:39.458Z,82.23
2024-01-20T18:52:06.612Z,82.61
2024-01-20T18:54:33.338Z,83.02
2024-01-20T18:56:59.983Z,82.90
2024-01-20T18:59:26.600Z,83.07
2024-01-20T19:01:54.383Z,83.06
2024-01-20T19:04:21.755Z,83.16
2024-01-20T19:06:48.851Z,83.42
2024-01-20T19:09:15.492Z,83.58
2024-01-20T19:11:42.191Z,83.92
2024-01-20T19:14:08.814Z,84.33
2024-01-20T19:16:35.433Z,85.14
2024-01-20T19:19:04.507Z,85.50
2024-01-20T19:21:31.380Z,85.63
2024-01-20T19:23:58.459Z,86.25
2024-01-20T19:26:25.083Z,86.44
2024-01-20T19:28:51.948Z,86.50
2024-01-20T19:31:18.587Z,86.91
2024-01-20T19:33:48.867Z,87.01
2024-01-20T19:36:15.593Z,87.01
2024-01-20T19:38:42.381Z,87.16
2024-01-20T19:41:09.427Z,87.23
2024-01-20T19:43:36.439Z,87.34
2024-01-20T19:46:03.796Z,87.32
2024-01-20T19:48:33.003Z,87.25
2024-01-20T19:50:59.869Z,87.23
2024-01-20T19:53:26.804Z,87.27
2024-01-20T19:55:53.692Z,87.00
2024-01-20T19:58:20.367Z,87.27
2024-01-20T20:00:49.397Z,87.57
2024-01-20T20:03:16.477Z,87.14
2024-01-20T20:05:46.556Z,87.37
2024-01-20T20:08:14.044Z,87.44
2024-01-20T20:10:40.748Z,87.11
2024-01-20T20:13:07.326Z,87.66
2024-01-20T20:15:33.948Z,87.61
2024-01-20T20:18:00.729Z,88.05
2024-01-20T20:20:27.509Z,88.10
2024-01-20T20:22:57.030Z,88.28
2024-01-20T20:25:23.604Z,87.95
2024-01-20T20:27:50.253Z,88.00
2024-01-20T20:30:17.334Z,87.48
2024-01-20T20:32:45.265Z,87.15
2024-01-20T20:35:13.300Z,86.98
2024-01-20T20:37:40.534Z,86.98
2024-01-20T20:40:09.492Z,87.27
2024-01-20T20:42:36.141Z,87.20
2024-01-20T20:45:02.828Z,86.98
2024-01-20T20:47:29.496Z,86.96
2024-01-20T20:49:56.934Z,86.49
2024-01-20T20:52:23.698Z,86.79
2024-01-20T20:54:50.452Z,86.61
2024-01-20T20:57:19.196Z,86.41
2024-01-20T20:59:46.286Z,86.00
2024-01-20T21:02:13.049Z,86.32
2024-01-20T21:04:39.738Z,85.87
2024-01-20T21:07:07.881Z,85.73
2024-01-20T21:09:35.249Z,85.72
2024-01-20T21:12:02.441Z,85.62
2024-01-20T21:14:32.148Z,85.67
2024-01-20T21:16:58.786Z,86.02
2024-01-20T21:19:25.541Z,85.70
2024-01-20T21:21:52.377Z,85.64
2024-01-20T21:24:22.086Z,85.27
2024-01-20T21:26:48.747Z,84.86
2024-01-20T21:29:15.337Z,84.66
2024-01-20T21:31:43.372Z,84.29
2024-01-20T21:34:10.138Z,84.33
2024-01-20T21:36:37.233Z,84.25
2024-01-20T21:39:09.411Z,84.31
2024-01-20T21:41:36.824Z,84.31
2024-01-20T21:44:04.351Z,84.07
2024-01-20T21:46:31.107Z,84.19
2024-01-20T21:48:58.046Z,84.02
2024-01-20T21:51:24.807Z,83.21
2024-01-20T21:53:51.451Z,83.24
2024-01-20T21:56:18.049Z,82.92
2024-01-20T21:58:44.998Z,83.02
2024-01-20T22:01:11.777Z,82.38
2024-01-20T22:03:38.688Z,81.65
2024-01-20T22:06:05.801Z,81.31
2024-01-20T22:08:32.397Z,81.31
2024-01-20T22:10:59.087Z,80.48
2024-01-20T22:13:27.389Z,79.89
2024-01-20T22:15:54.191Z,79.93
2024-01-20T22:18:21.099Z,79.11
2024-01-20T22:20:47.824Z,79.62
2024-01-20T22:23:14.487Z,79.04
2024-01-20T22:25:41.196Z,78.99
2024-01-20T22:28:07.817Z,78.18
2024-01-20T22:30:34.473Z,78.63
2024-01-20T22:33:01.640Z,78.02
2024-01-20T22:35:30.839Z,77.25
2024-01-20T22:37:57.667Z,77.52
2024-01-20T22:40:24.727Z,78.21
2024-01-20T22:42:51.952Z,77.82
2024-01-20T22:45:18.664Z,77.33
2024-01-20T22:47:46.152Z,76.89
2024-01-20T22:50:13.232Z,76.66
2024-01-20T22:52:43.100Z,76.24
2024-01-20T22:55:09.918Z,76.50
2024-01-20T22:57:39.322Z,76.31
2024-01-20T23:00:13.817Z,76.46
2024-01-20T23:02:42.943Z,76.19
2024-01-20T23:05:10.150Z,76.05
2024-01-20T23:07:39.396Z,75.81
2024-01-20T23:10:06.438Z,76.19
2024-01-20T23:12:33.078Z,76.19
2024-01-20T23:14:59.709Z,76.55
2024-01-20T23:17:26.447Z,76.02
2024-01-20T23:19:53.064Z,75.74
2024-01-20T23:22:19.750Z,75.76
2024-01-20T23:24:46.996Z,76.24
2024-01-20T23:27:14.055Z,75.67
2024-01-20T23:29:41.232Z,75.12
2024-01-20T23:32:12.303Z,74.83
2024-01-20T23:34:40.998Z,74.42
2024-01-20T23:37:07.683Z,73.19
2024-01-20T23:39:34.322Z,72.52
2024-01-20T23:42:00.974Z,72.66
2024-01-20T23:44:27.573Z,71.95
2024-01-20T23:46:55.646Z,72.69
2024-01-20T23:49:22.430Z,72.23
2024-01-20T23:51:49.072Z,72.05
2024-01-20T23:54:15.789Z,72.11
2024-01-20T23:56:42.420Z,71.86
2024-01-20T23:59:09.258Z,71.89
